Tiempo atmosférico en la estación meteorológica de Molina de Segura, Murcia (170 m.)



Fecha
DESCASC
Temp. máxima en grados centígrados (hora)
DESCASC
Temp. mínima en grados centígrados (hora)
DESCASC
Temp. media en grados centígrados
DESCASC
Racha de viento máxima en m/sg (hora)
DESCASC
Velocidad máxima media en intervalos de 10 minutos(hora)
DESCASC
Precipitaciones diarias en mm
DESCASC
Precipitaciones de 00:00 a 06:00 en mm
DESCASC
Precipitaciones de 06:00 a 12:00 en mm
DESCASC
Precipitaciones de 12:00 a 18:00 en mm
DESCASC
Precipitaciones de 18:00 a 24:00 en mm
DESCASC
10-07-2020 35.2 (15:00) 19.5 (07:30) 27.4 10 (18:40) 6.11 (16:30) 0 0 0 0 0
09-07-2020 33.6 (15:20) 20.4 (06:10) 27 16.94 (00:20) 11.11 (00:20) 0.4 0.4 0 0 0
08-07-2020 32.6 (14:50) 21.1 (07:10) 26.8 10.28 (21:40) 6.39 (16:00) 0 0 0 0 0
07-07-2020 37.3 (15:20) 17.8 (06:50) 27.5 9.17 (15:50) 5.56 (19:30) 0 0 0 0 0
06-07-2020 36.3 (15:50) 18.5 (00:00) 27.4 8.61 (18:30) 5.28 (18:40) 0 0 0 0 0
05-07-2020 34.3 (17:40) 18.3 (00:00) 26.3 8.61 (15:50) 5 (18:00) 0 0 0 0 0
04-07-2020 33.4 (15:20) 21.8 (00:00) 27.6 9.17 (16:00) 5 (19:40) 0 0 0 0 0
03-07-2020 33.7 (14:20) 20.4 (07:00) 27.1 11.11 (16:30) 6.67 (16:30) 0 0 0 0 0
02-07-2020 38.5 (15:50) 22.1 (00:00) 30.3 10.28 (16:20) 6.11 (16:20) 0 0 0 0 0
01-07-2020 41 (16:20) 18.4 (00:00) 29.7 9.17 (17:50) 4.72 (17:40) 0 0 0 0 0
30-06-2020 34 (15:10) 19.7 (00:00) 26.9 10.28 (17:30) 6.39 (17:20) 0 0 0 0 0
29-06-2020 33.8 (17:10) 17.5 (00:00) 25.6 9.44 (14:50) 5 (16:50) 0 0 0 0 0
28-06-2020 35 (17:10) 17.7 (00:00) 26.4 8.61 (17:30) 5 (17:30) 0 0 0 0 0
27-06-2020 37.1 (16:10) 19.6 (00:00) 28.3 11.39 (16:20) 7.5 (16:20) 0 0 0 0 0
26-06-2020 34 (15:00) 18 (00:00) 26 9.72 (17:20) 5.83 (17:20) 0 0 0 0 0
25-06-2020 34.1 (15:50) 18.5 (00:00) 26.3 10.28 (14:30) 5.83 (18:50) 0 0 0 0 0
24-06-2020 33 (18:00) 18.5 (00:00) 25.8 8.33 (16:40) 5.28 (21:30) 0 0 0 0 0
23-06-2020 31.5 (14:30) 17.2 (00:00) 24.4 9.72 (15:20) 5.83 (15:30) 0 0 0 0 0
22-06-2020 32.2 (16:00) 17.7 (00:00) 25 10.83 (15:30) 5.83 (15:40) 0 0 0 0 0
21-06-2020 33.2 (15:40) 17.6 (00:00) 25.4 9.72 (16:50) 5.83 (20:00) 0 0 0 0 0
20-06-2020 33.5 (15:40) 16.3 (00:00) 24.9 9.72 (17:30) 5.83 (17:30) 0 0 0 0 0
19-06-2020 31.1 (17:20) 20.1 (00:00) 25.6 8.89 (16:10) 5.83 (20:10) 0 0 0 0 0
18-06-2020 29.9 (14:40) 18.1 (00:00) 24 11.11 (17:50) 6.67 (18:10) 0 0 0 0 0
17-06-2020 30.4 (14:00) 16 (00:00) 23.2 9.17 (15:10) 6.11 (15:50) 10 0 0 10 0
16-06-2020 33.3 (15:20) 17.1 (00:00) 25.2 9.17 (15:10) 5.83 (13:20) 0 0 0 0 0
15-06-2020 34.2 (17:50) 16.6 (00:00) 25.4 10.56 (16:00) 6.67 (16:00) 0 0 0 0 0
14-06-2020 32.7 (16:20) 15.5 (00:00) 24.1 8.89 (16:40) 5.28 (18:40) 0 0 0 0 0
13-06-2020 31.3 (17:50) 17.7 (00:00) 24.5 11.11 (11:40) 6.11 (03:00) 0 0 0 0 0
12-06-2020 30.6 (17:10) 18.6 (00:00) 24.6 9.17 (17:00) 6.39 (19:30) 0 0 0 0 0

Gráficas

Temp. máximas Temp. mínimas Temp. medias Precipitaciones Rachas de viento máximas Velocidades máximas media en intervalos de 10 minutos

Datos horarios

Fecha y hora oficial Temperatura (ºC) Velocidad del viento (km/h) Dirección del viento Racha (km/h) Dirección de racha Precipitación (mm) Presión (hPa) Tendencia (hPa) Humedad (%)
2020-07-11 23:00:00 25.3 4 Este 10 Este 0 -- -- 57
2020-07-11 22:00:00 26.5 8 Sudeste 19 Sudeste 0 -- -- 53
2020-07-11 21:00:00 28.2 15 Sudeste 28 Sudeste 0 -- -- 48
2020-07-11 20:00:00 30.3 19 Sudeste 37 Este 0 -- -- 43
2020-07-11 19:00:00 31.7 21 Este 39 Sudeste 0 -- -- 38
2020-07-11 18:00:00 33.2 22 Sudeste 40 Sudeste 0 -- -- 36
2020-07-11 17:00:00 34 21 Sudeste 40 Sudeste 0 -- -- 37
2020-07-11 16:00:00 35 20 Sudeste 34 Sudeste 0 -- -- 35
2020-07-11 15:00:00 34.7 18 Sudeste 33 Sudeste 0 -- -- 39
2020-07-11 14:00:00 34.2 15 Este 30 Este 0 -- -- 35
2020-07-11 13:00:00 33.6 16 Sudeste 28 Este 0 -- -- 39
2020-07-11 12:00:00 32.4 6 Sudeste 19 Sudeste 0 -- -- 37
2020-07-11 11:00:00 30.1 3 Norte 20 Oeste 0 -- -- 45
2020-07-11 10:00:00 27.6 11 Noroeste 23 Noroeste 0 -- -- 57
2020-07-11 09:00:00 24.4 10 Noroeste 22 Noroeste 0 -- -- 70
2020-07-11 08:00:00 21.3 5 Noroeste 14 Noroeste 0 -- -- 85
2020-07-11 07:00:00 20.9 2 Noroeste 18 Noroeste 0 -- -- 87
2020-07-11 06:00:00 20.6 8 Noroeste 13 Noroeste 0 -- -- 90
2020-07-11 05:00:00 20.9 6 Noroeste 9 Noroeste 0 -- -- 89
2020-07-11 04:00:00 21.3 5 Noroeste 7 Noroeste 0 -- -- 87
2020-07-11 03:00:00 21.6 4 Noroeste 6 Norte 0 -- -- 86
2020-07-11 02:00:00 22.4 4 Norte 6 Norte 0 -- -- 84
2020-07-11 01:00:00 23.3 3 Norte 5 Norte 0 -- -- 82
2020-07-11 00:00:00 24.3 3 Este 12 Sudeste 0 -- -- 79
2020-07-10 23:00:00 25 6 Este 15 Este 0 -- -- 77
2020-07-10 22:00:00 26 7 Este 18 Sudeste 0 -- -- 72
2020-07-10 21:00:00 27.6 13 Sudeste 27 Sudeste 0 -- -- 64
2020-07-10 20:00:00 29.7 19 Sudeste 30 Sudeste 0 -- -- 57
2020-07-10 19:00:00 31.4 19 Este 36 Este 0 -- -- 50
2020-07-10 18:00:00 32.6 21 Sudeste 35 Este 0 -- -- 46
2020-07-10 17:00:00 33.8 20 Sudeste 35 Sudeste 0 -- -- 42
2020-07-10 16:00:00 34.6 17 Este 34 Sudeste 0 -- -- 37
2020-07-10 15:00:00 35.2 13 Sudeste 27 Sudeste 0 -- -- 33
2020-07-10 14:00:00 34.5 14 Este 23 Sudeste 0 -- -- 32
2020-07-10 13:00:00 33.3 11 Sudeste 25 Sudeste 0 -- -- 32
2020-07-10 12:00:00 31.9 5 Sudeste 14 Oeste 0 -- -- 35
2020-07-10 11:00:00 30 6 Oeste 17 Noroeste 0 -- -- 44
2020-07-10 10:00:00 27.3 8 Noroeste 18 Noroeste 0 -- -- 54
2020-07-10 09:00:00 24 14 Noroeste 19 Noroeste 0 -- -- 65
2020-07-10 08:00:00 20.1 0 Calma 7 Norte 0 -- -- 75
2020-07-10 07:00:00 19.7 4 Sudeste 9 Sudeste 0 -- -- 75
2020-07-10 06:00:00 20.7 3 Este 14 Norte 0 -- -- 71
2020-07-10 05:00:00 20.4 8 Noroeste 9 Noroeste 0 -- -- 73
2020-07-10 04:00:00 21.3 7 Norte 13 Norte 0 -- -- 72
2020-07-10 03:00:00 21.6 7 Norte 15 Norte 0 -- -- 71
2020-07-10 02:00:00 21.3 8 Norte 11 Norte 0 -- -- 69
2020-07-10 01:00:00 22.5 2 Norte 9 Norte 0 -- -- 70
2020-07-10 00:00:00 23.5 4 Nordeste 12 Sudeste 0 -- -- 69
2020-07-09 23:00:00 24.4 4 Nordeste 13 Sudeste 0 -- -- 65
2020-07-09 22:00:00 25.8 11 Sudeste 28 Este 0 -- -- 60
2020-07-09 21:00:00 27.3 15 Este 31 Este 0 -- -- 52
2020-07-09 20:00:00 29.7 22 Sudeste 39 Sudeste 0 -- -- 44
2020-07-09 19:00:00 31.2 20 Este 40 Sudeste 0 -- -- 45
2020-07-09 18:00:00 32.5 22 Sudeste 39 Sudeste 0 -- -- 40
2020-07-09 17:00:00 32.3 22 Sudeste 47 Sudeste 0 -- -- 37
2020-07-09 16:00:00 32.9 22 Sudeste 37 Este 0 -- -- 36
2020-07-09 15:00:00 33.2 22 Sudeste 39 Sudeste 0 -- -- 37
2020-07-09 14:00:00 32.9 20 Sudeste 34 Este 0 -- -- 37
2020-07-09 13:00:00 32 15 Sudeste 37 Sudeste 0 -- -- 40
2020-07-09 12:00:00 31.3 13 Sudeste 27 Este 0 -- -- 44
2020-07-09 11:00:00 30.1 9 Sudeste 20 Este 0 -- -- 40
2020-07-09 10:00:00 26.6 8 Norte 21 Norte 0 -- -- 55
2020-07-09 09:00:00 23.7 16 Norte 24 Norte 0 -- -- 70
2020-07-09 08:00:00 20.9 5 Noroeste 9 Noroeste 0 -- -- 82
2020-07-09 07:00:00 20.8 5 Noroeste 13 Noroeste 0 -- -- 80
2020-07-09 06:00:00 20.5 5 Oeste 9 Norte 0 -- -- 67
2020-07-09 05:00:00 21 5 Norte 16 Norte 0.2 -- -- 74
2020-07-09 04:00:00 22.3 11 Norte 24 Nordeste 0 -- -- 75
2020-07-09 03:00:00 23.4 4 Nordeste 18 Sudeste 0 -- -- 79
2020-07-09 02:00:00 23.7 4 Oeste 21 Sur 0 -- -- 81
2020-07-09 01:00:00 23.6 17 Sudeste 61 Este 0.2 -- -- 82
2020-07-09 00:00:00 24.6 10 Sudoeste 31 Sudeste 0 -- -- 80
2020-07-08 23:00:00 24.7 13 Este 32 Sudeste 0 -- -- 78
2020-07-08 22:00:00 25.3 20 Este 37 Sudeste 0 -- -- 74
2020-07-08 21:00:00 26.8 15 Sudeste 28 Sudeste 0 -- -- 58
2020-07-08 20:00:00 28.3 11 Este 35 Sudeste 0 -- -- 52
2020-07-08 19:00:00 29.5 19 Sudeste 34 Sudeste 0 -- -- 50
2020-07-08 18:00:00 29.1 15 Este 27 Sudeste 0 -- -- 47
2020-07-08 17:00:00 31.4 21 Sudeste 33 Este 0 -- -- 41
2020-07-08 16:00:00 32.4 23 Sudeste 35 Sudeste 0 -- -- 37
2020-07-08 15:00:00 32.3 19 Sudeste 34 Sudeste 0 -- -- 34
2020-07-08 14:00:00 31.7 19 Este 31 Sudeste 0 -- -- 41
2020-07-08 13:00:00 31.4 18 Este 30 Este 0 -- -- 39
2020-07-08 12:00:00 30.2 17 Sudeste 28 Sudeste 0 -- -- 42
2020-07-08 11:00:00 28.6 13 Este 24 Sudeste 0 -- -- 52
2020-07-08 10:00:00 26.8 11 Sudeste 19 Este 0 -- -- 67
2020-07-08 09:00:00 24 3 Noroeste 8 Norte 0 -- -- 77
2020-07-08 08:00:00 21.3 2 Noroeste 8 Este 0 -- -- 80
2020-07-08 07:00:00 21.2 5 Nordeste 9 Este 0 -- -- 80
2020-07-08 06:00:00 21.7 6 Este 10 Este 0 -- -- 84
2020-07-08 05:00:00 22 5 Nordeste 11 Este 0 -- -- 83
2020-07-08 04:00:00 22.5 8 Este 13 Este 0 -- -- 88
2020-07-08 03:00:00 22.9 6 Este 12 Sudeste 0 -- -- 89
2020-07-08 02:00:00 23.5 8 Este 16 Este 0 -- -- 87
2020-07-08 01:00:00 23.8 9 Este 16 Este 0 -- -- 83
2020-07-08 00:00:00 24.6 11 Este 19 Este 0 -- -- 73
2020-07-07 23:00:00 25.9 12 Este 22 Este 0 -- -- 60
2020-07-07 22:00:00 27.2 11 Este 26 Sudeste 0 -- -- 55
2020-07-07 21:00:00 29.5 14 Este 28 Este 0 -- -- 48
2020-07-07 20:00:00 31.9 15 Este 31 Este 0 -- -- 40
2020-07-07 19:00:00 33.9 17 Este 32 Este 0 -- -- 40
2020-07-07 18:00:00 36.8 15 Sudeste 31 Sudeste 0 -- -- 35
2020-07-07 17:00:00 35.9 13 Sudeste 32 Nordeste 0 -- -- 36
2020-07-07 16:00:00 36.3 19 Sudeste 33 Este 0 -- -- 35
2020-07-07 15:00:00 36.9 9 Sudeste 26 Sudeste 0 -- -- 26
2020-07-07 14:00:00 35.3 10 Sudeste 21 Este 0 -- -- 25
2020-07-07 13:00:00 33.1 8 Sudeste 16 Sudeste 0 -- -- 26
2020-07-07 12:00:00 31.3 6 Sur 13 Sur 0 -- -- 32
2020-07-07 11:00:00 29.1 3 Sur 9 Oeste 0 -- -- 24
2020-07-07 10:00:00 27.1 4 Sudoeste 9 Sudoeste 0 -- -- 42
2020-07-07 09:00:00 23.9 0 Calma 6 Oeste 0 -- -- 67
2020-07-07 08:00:00 19.1 0 Calma 6 Noroeste 0 -- -- 72
2020-07-07 07:00:00 17.8 5 Norte 6 Norte 0 -- -- 67
2020-07-07 06:00:00 18.1 5 Norte 6 Noroeste 0 -- -- 70
2020-07-07 05:00:00 19 3 Norte 5 Noroeste 0 -- -- 78
2020-07-07 04:00:00 20.4 0 Calma 4 Noroeste 0 -- -- 75
2020-07-07 03:00:00 21.8 2 Este 8 Este 0 -- -- 75
2020-07-07 02:00:00 22.5 5 Este 10 Este 0 -- -- 77
2020-07-07 01:00:00 23.4 7 Este 17 Sudeste 0 -- -- 73
2020-07-07 00:00:00 24.2 8 Este 16 Este 0 -- -- 68
2020-07-06 23:00:00 25.4 9 Este 19 Sudeste 0 -- -- 54
2020-07-06 22:00:00 26.9 12 Este 22 Este 0 -- -- 43
2020-07-06 21:00:00 29.3 11 Este 21 Este 0 -- -- 40
2020-07-06 20:00:00 31.2 15 Este 28 Este 0 -- -- 36
2020-07-06 19:00:00 33.3 16 Este 31 Sudeste 0 -- -- 33
2020-07-06 18:00:00 35.9 14 Sudeste 28 Sudeste 0 -- -- 28
2020-07-06 17:00:00 35.9 15 Sudeste 31 Sudeste 0 -- -- 27
2020-07-06 16:00:00 36 17 Sudeste 31 Sudeste 0 -- -- 27
2020-07-06 15:00:00 35.4 14 Sudeste 31 Sudeste 0 -- -- 31
2020-07-06 14:00:00 34.6 12 Sudeste 22 Sudeste 0 -- -- 30
2020-07-06 13:00:00 33.2 12 Sudeste 23 Sudeste 0 -- -- 33
2020-07-06 12:00:00 31.1 7 Sudeste 14 Sudeste 0 -- -- 42
2020-07-06 11:00:00 29.2 6 Sudoeste 13 Oeste 0 -- -- 39
2020-07-06 10:00:00 26.9 8 Oeste 17 Noroeste 0 -- -- 45
2020-07-06 09:00:00 24.1 13 Noroeste 19 Noroeste 0 -- -- 57
2020-07-06 08:00:00 20.3 6 Noroeste 9 Noroeste 0 -- -- 77
2020-07-06 07:00:00 18.8 6 Noroeste 9 Noroeste 0 -- -- 83
2020-07-06 06:00:00 18.7 6 Norte 8 Norte 0 -- -- 81
2020-07-06 05:00:00 19.3 3 Noroeste 7 Noroeste 0 -- -- 83
2020-07-06 04:00:00 19.9 3 Norte 5 Norte 0 -- -- 81
2020-07-06 03:00:00 20.5 3 Norte 6 Este 0 -- -- 78
2020-07-06 02:00:00 21.5 4 Nordeste 7 Este 0 -- -- 77
2020-07-06 01:00:00 22.3 4 Este 8 Este 0 -- -- 75
2020-07-06 00:00:00 23.2 3 Este 6 Este 0 -- -- 70
2020-07-05 23:00:00 24.4 6 Sudeste 15 Este 0 -- -- 65
2020-07-05 22:00:00 25.6 8 Este 20 Sudeste 0 -- -- 60
2020-07-05 21:00:00 28 13 Sudeste 25 Sudeste 0 -- -- 52
2020-07-05 20:00:00 29.7 17 Sudeste 27 Este 0 -- -- 48
2020-07-05 19:00:00 31.6 14 Este 29 Este 0 -- -- 43
2020-07-05 18:00:00 33.4 18 Sudeste 30 Sudeste 0 -- -- 39
2020-07-05 17:00:00 33.8 15 Sudeste 28 Sudeste 0 -- -- 38
2020-07-05 16:00:00 34.2 14 Sudeste 31 Sudeste 0 -- -- 35
2020-07-05 15:00:00 33.3 14 Este 26 Este 0 -- -- 39
2020-07-05 14:00:00 32.5 9 Sudeste 22 Sur 0 -- -- 38
2020-07-05 13:00:00 31.1 11 Sudeste 22 Sudeste 0 -- -- 44
2020-07-05 12:00:00 29.8 6 Sudeste 15 Sudeste 0 -- -- 44
2020-07-05 11:00:00 28.2 5 Sur 12 Sur 0 -- -- 43
2020-07-05 10:00:00 26.6 3 Sur 9 Oeste 0 -- -- 54
2020-07-05 09:00:00 24.1 2 Sur 12 Norte 0 -- -- 65
2020-07-05 08:00:00 20 8 Norte 10 Norte 0 -- -- 81
2020-07-05 07:00:00 18.3 5 Norte 7 Noroeste 0 -- -- 86
2020-07-05 06:00:00 18.8 5 Norte 9 Noroeste 0 -- -- 86
2020-07-05 05:00:00 18.7 4 Noroeste 6 Norte 0 -- -- 82
2020-07-05 04:00:00 19.3 3 Noroeste 5 Este 0 -- -- 79
2020-07-05 03:00:00 20.6 3 Este 6 Nordeste 0 -- -- 78
2020-07-05 02:00:00 21.4 0 Calma 12 Este 0 -- -- 78
2020-07-05 01:00:00 22.2 7 Este 15 Sudeste 0 -- -- 81
2020-07-05 00:00:00 22.9 8 Este 19 Este 0 -- -- 77
2020-07-04 23:00:00 23.7 9 Este 19 Este 0 -- -- 72
2020-07-04 22:00:00 24.8 12 Este 26 Este 0 -- -- 67
2020-07-04 21:00:00 26.9 17 Sudeste 30 Este 0 -- -- 58
2020-07-04 20:00:00 29.6 18 Sudeste 29 Sudeste 0 -- -- 51
2020-07-04 19:00:00 32.6 17 Sudeste 28 Sudeste 0 -- -- 45
2020-07-04 18:00:00 33.2 14 Sudeste 30 Sudeste 0 -- -- 46
2020-07-04 17:00:00 33.2 16 Sudeste 28 Sur 0 -- -- 47
2020-07-04 16:00:00 32.3 16 Sudeste 33 Sudeste 0 -- -- 51
2020-07-04 15:00:00 32.7 9 Sudeste 27 Este 0 -- -- 48
2020-07-04 14:00:00 31.3 11 Sudeste 22 Sudeste 0 -- -- 52
2020-07-04 13:00:00 30.2 7 Sudeste 18 Sudeste 0 -- -- 53
2020-07-04 12:00:00 27.9 6 Sur 14 Sudeste 0 -- -- 62
2020-07-04 11:00:00 27.1 6 Sur 13 Sudoeste 0 -- -- 66
2020-07-04 10:00:00 27.5 5 Este 10 Sudeste 0 -- -- 64
2020-07-04 09:00:00 24.7 4 Sudeste 9 Sudeste 0 -- -- 81
2020-07-04 08:00:00 22.2 0 Calma 5 Norte 0 -- -- 93
2020-07-04 07:00:00 22 0 Calma 12 Este 0 -- -- 91
2020-07-04 06:00:00 22.4 7 Este 12 Este 0 -- -- 91
2020-07-04 05:00:00 22.8 6 Este 12 Este 0 -- -- 90
2020-07-04 04:00:00 22.9 6 Sudeste 13 Este 0 -- -- 89
2020-07-04 03:00:00 23 5 Este 10 Sudeste 0 -- -- 88
2020-07-04 02:00:00 22.9 4 Este 8 Este 0 -- -- 87
2020-07-04 01:00:00 23.3 4 Este 12 Este 0 -- -- 85
2020-07-04 00:00:00 23.9 7 Este 15 Este 0 -- -- 83
2020-07-03 23:00:00 24.3 10 Este 22 Este 0 -- -- 81
2020-07-03 22:00:00 25.2 14 Este 23 Este 0 -- -- 76
2020-07-03 21:00:00 26.4 15 Sudeste 26 Este 0 -- -- 70
2020-07-03 20:00:00 28.6 17 Sudeste 30 Sudeste 0 -- -- 64
2020-07-03 19:00:00 29 19 Sudeste 32 Sudeste 0 -- -- 61
2020-07-03 18:00:00 29.7 19 Sudeste 37 Sudeste 0 -- -- 57
2020-07-03 17:00:00 31.2 22 Sudeste 40 Este 0 -- -- 53
2020-07-03 16:00:00 31.4 20 Este 34 Este 0 -- -- 52
2020-07-03 15:00:00 32.9 21 Sudeste 34 Sudeste 0 -- -- 49
2020-07-03 14:00:00 32.9 10 Sudeste 28 Este 0 -- -- 47
2020-07-03 13:00:00 31.7 9 Sudeste 23 Sudeste 0 -- -- 49
2020-07-03 12:00:00 30.2 12 Sudeste 23 Sudeste 0 -- -- 54
2020-07-03 11:00:00 28.5 9 Sudeste 18 Sudeste 0 -- -- 60
2020-07-03 10:00:00 26.9 4 Oeste 10 Sudoeste 0 -- -- 71
2020-07-03 09:00:00 24.5 7 Oeste 12 Sudoeste 0 -- -- 84
2020-07-03 08:00:00 21.4 3 Norte 9 Noroeste 0 -- -- 93
2020-07-03 07:00:00 20.4 4 Norte 5 Norte 0 -- -- 92
2020-07-03 06:00:00 20.8 4 Norte 5 Norte 0 -- -- 91
2020-07-03 05:00:00 21.3 3 Nordeste 6 Este 0 -- -- 89
2020-07-03 04:00:00 21.6 3 Nordeste 8 Norte 0 -- -- 89
2020-07-03 03:00:00 22.1 5 Nordeste 7 Noroeste 0 -- -- 87
2020-07-03 02:00:00 22.8 3 Noroeste 6 Norte 0 -- -- 83
2020-07-03 01:00:00 23.9 2 Nordeste 10 Este 0 -- -- 81
2020-07-03 00:00:00 24.8 6 Sudeste 14 Este 0 -- -- 79
2020-07-02 23:00:00 25.4 7 Este 15 Este 0 -- -- 76
2020-07-02 22:00:00 26.6 7 Este 21 Sudeste 0 -- -- 71
2020-07-02 21:00:00 28.3 13 Sudeste 24 Este 0 -- -- 67
2020-07-02 20:00:00 29.8 15 Este 30 Este 0 -- -- 61
2020-07-02 19:00:00 31.2 17 Este 35 Este 0 -- -- 59
2020-07-02 18:00:00 34.6 20 Sudeste 32 Sudeste 0 -- -- 49
2020-07-02 17:00:00 37.2 21 Sudeste 37 Sudeste 0 -- -- 38
2020-07-02 16:00:00 38.3 22 Sudeste 34 Sudeste 0 -- -- 37
2020-07-02 15:00:00 38 14 Sudeste 25 Sudeste 0 -- -- 34
2020-07-02 14:00:00 36.6 15 Sudeste 25 Sudeste 0 -- -- 35
2020-07-02 13:00:00 34.8 10 Sudeste 19 Sudeste 0 -- -- 38
2020-07-02 12:00:00 32.1 10 Sudeste 18 Este 0 -- -- 46
2020-07-02 11:00:00 29.6 9 Sudeste 18 Este 0 -- -- 51
2020-07-02 10:00:00 29.1 10 Este 17 Este 0 -- -- 59
2020-07-02 09:00:00 26.9 5 Este 13 Norte 0 -- -- 46
2020-07-02 08:00:00 24.2 6 Noroeste 15 Noroeste 0 -- -- 40
2020-07-02 07:00:00 24.1 4 Norte 21 Noroeste 0 -- -- 37
2020-07-02 06:00:00 26.3 14 Noroeste 22 Noroeste 0 -- -- 30
2020-07-02 05:00:00 22.6 8 Noroeste 12 Norte 0 -- -- 40
2020-07-02 04:00:00 23.1 3 Noroeste 14 Oeste 0 -- -- 47
2020-07-02 03:00:00 22.4 6 Oeste 11 Oeste 0 -- -- 68
2020-07-02 02:00:00 23 0 Calma 6 Noroeste 0 -- -- 70
2020-07-02 01:00:00 24.4 3 Norte 8 Norte 0 -- -- 65
2020-07-02 00:00:00 27.3 4 Sudeste 8 Este 0 -- -- 68
2020-07-01 23:00:00 29.7 6 Sudeste 12 Sudeste 0 -- -- 58
2020-07-01 22:00:00 32.4 6 Este 12 Este 0 -- -- 35
2020-07-01 21:00:00 36.7 5 Sudeste 14 Sudeste 0 -- -- 29
2020-07-01 20:00:00 38.7 6 Sudoeste 17 Sur 0 -- -- 24
2020-07-01 19:00:00 39.6 8 Sudoeste 25 Oeste 0 -- -- 26
2020-07-01 18:00:00 38.9 13 Sur 33 Sudeste 0 -- -- 32
2020-07-01 17:00:00 39.3 16 Sur 33 Sur 0 -- -- 29
2020-07-01 16:00:00 40.7 5 Sudoeste 20 Oeste 0 -- -- 21
2020-07-01 15:00:00 38.7 7 Sudoeste 19 Sudoeste 0 -- -- 23
2020-07-01 14:00:00 36.9 8 Oeste 16 Oeste 0 -- -- 26
2020-07-01 13:00:00 34.2 5 Sudoeste 16 Noroeste 0 -- -- 33
2020-07-01 12:00:00 31.3 7 Sudoeste 15 Oeste 0 -- -- 42
2020-07-01 11:00:00 28.9 6 Oeste 12 Oeste 0 -- -- 50
2020-07-01 10:00:00 27.4 5 Oeste 9 Oeste 0 -- -- 55
2020-07-01 09:00:00 24.8 0 Calma 6 Noroeste 0 -- -- 68
2020-07-01 08:00:00 19.8 4 Noroeste 10 Norte 0 -- -- 78
2020-07-01 07:00:00 18.5 4 Norte 11 Norte 0 -- -- 80
2020-07-01 06:00:00 18.7 6 Noroeste 9 Norte 0 -- -- 81
2020-07-01 05:00:00 19.4 3 Norte 5 Norte 0 -- -- 78
2020-07-01 04:00:00 20.1 3 Norte 5 Norte 0 -- -- 77
2020-07-01 03:00:00 20.8 6 Norte 10 Noroeste 0 -- -- 77
2020-07-01 02:00:00 21.2 4 Norte 7 Norte 0 -- -- 77
2020-07-01 01:00:00 22.1 3 Norte 5 Noroeste 0 -- -- 75
2020-07-01 00:00:00 23.4 0 Calma 8 Sudeste 0 -- -- 70
2020-06-30 23:00:00 24.9 6 Sudeste 11 Sudeste 0 -- -- 64
2020-06-30 22:00:00 26.8 4 Sudeste 19 Sudeste 0 -- -- 55
2020-06-30 21:00:00 28.7 12 Este 29 Este 0 -- -- 46
2020-06-30 20:00:00 30.8 18 Sudeste 31 Sudeste 0 -- -- 37
2020-06-30 19:00:00 32 17 Sudeste 33 Sudeste 0 -- -- 35
2020-06-30 18:00:00 32.6 22 Sudeste 37 Sudeste 0 -- -- 41
2020-06-30 17:00:00 33.1 19 Este 37 Este 0 -- -- 37
2020-06-30 16:00:00 33.5 21 Sudeste 33 Sudeste 0 -- -- 37
2020-06-30 15:00:00 33.8 17 Sudeste 33 Este 0 -- -- 36
2020-06-30 14:00:00 33 19 Sudeste 30 Sudeste 0 -- -- 31
2020-06-30 13:00:00 31.9 13 Sudeste 27 Sudeste 0 -- -- 42
2020-06-30 12:00:00 29.9 11 Sudeste 19 Sudeste 0 -- -- 48
2020-06-30 11:00:00 27.6 4 Este 12 Sur 0 -- -- 59
2020-06-30 10:00:00 26 3 Nordeste 9 Nordeste 0 -- -- 69
2020-06-30 09:00:00 23.4 4 Sur 8 Sudeste 0 -- -- 81
2020-06-30 08:00:00 21.9 2 Nordeste 5 Este 0 -- -- 87
2020-06-30 07:00:00 21.2 3 Norte 6 Nordeste 0 -- -- 87
2020-06-30 06:00:00 20.9 2 Noroeste 4 Norte 0 -- -- 87
2020-06-30 05:00:00 20 0 Calma 5 Noroeste 0 -- -- 87
2020-06-30 04:00:00 20.1 4 Norte 7 Norte 0 -- -- 86
2020-06-30 03:00:00 21.4 3 Este 5 Este 0 -- -- 86
2020-06-30 02:00:00 22 3 Norte 9 Este 0 -- -- 81
2020-06-30 01:00:00 22.8 5 Este 11 Sudeste 0 -- -- 78
2020-06-30 00:00:00 23.6 7 Este 12 Sudeste 0 -- -- 70
2020-06-29 23:00:00 25.3 8 Este 15 Este 0 -- -- 62
2020-06-29 22:00:00 27.2 9 Este 16 Este 0 -- -- 50
2020-06-29 21:00:00 29.9 11 Este 24 Este 0 -- -- 40
2020-06-29 20:00:00 31.7 16 Este 30 Este 0 -- -- 33
2020-06-29 19:00:00 33.1 15 Este 27 Este 0 -- -- 34
2020-06-29 18:00:00 33.6 16 Este 31 Sudeste 0 -- -- 36
2020-06-29 17:00:00 33.5 15 Sudeste 31 Este 0 -- -- 41
2020-06-29 16:00:00 33.7 17 Sudeste 31 Sudeste 0 -- -- 41
2020-06-29 15:00:00 32.4 15 Este 34 Sudeste 0 -- -- 45
2020-06-29 14:00:00 32.3 14 Sudeste 30 Sudeste 0 -- -- 47
2020-06-29 13:00:00 31.3 13 Este 24 Sudeste 0 -- -- 47
2020-06-29 12:00:00 30.6 10 Sudeste 20 Sur 0 -- -- 45
2020-06-29 11:00:00 29.2 8 Sudeste 16 Sudeste 0 -- -- 46
2020-06-29 10:00:00 27.4 4 Sudoeste 9 Noroeste 0 -- -- 48
2020-06-29 09:00:00 23.5 10 Norte 14 Norte 0 -- -- 59
2020-06-29 08:00:00 18.7 4 Noroeste 8 Norte 0 -- -- 78
2020-06-29 07:00:00 17.5 3 Nordeste 5 Norte 0 -- -- 80
2020-06-29 06:00:00 17.9 4 Norte 7 Norte 0 -- -- 81
2020-06-29 05:00:00 18.5 5 Noroeste 8 Noroeste 0 -- -- 81
2020-06-29 04:00:00 19.6 3 Noroeste 6 Noroeste 0 -- -- 86
2020-06-29 03:00:00 20.3 3 Norte 5 Noroeste 0 -- -- 82
2020-06-29 02:00:00 21.3 3 Norte 6 Nordeste 0 -- -- 81
2020-06-29 01:00:00 22.3 3 Este 10 Este 0 -- -- 81
2020-06-29 00:00:00 23.2 6 Este 15 Sudeste 0 -- -- 77
2020-06-28 23:00:00 24.3 9 Este 19 Este 0 -- -- 69
2020-06-28 22:00:00 25.9 12 Este 23 Este 0 -- -- 60
2020-06-28 21:00:00 28.5 13 Este 26 Este 0 -- -- 51
2020-06-28 20:00:00 30.7 15 Este 27 Sudeste 0 -- -- 44
2020-06-28 19:00:00 32.9 14 Este 25 Sudeste 0 -- -- 41
2020-06-28 18:00:00 34.6 15 Sudeste 31 Este 0 -- -- 40
2020-06-28 17:00:00 34.6 14 Sudeste 28 Sudeste 0 -- -- 41
2020-06-28 16:00:00 33.6 14 Este 26 Sudeste 0 -- -- 44
2020-06-28 15:00:00 33.2 13 Este 25 Sudeste 0 -- -- 42
2020-06-28 14:00:00 32.5 10 Sur 23 Sudeste 0 -- -- 40
2020-06-28 13:00:00 30.9 9 Sudeste 19 Este 0 -- -- 46
2020-06-28 12:00:00 29.4 9 Sudeste 20 Sudeste 0 -- -- 47
2020-06-28 11:00:00 27.9 9 Sudeste 17 Sudeste 0 -- -- 58
2020-06-28 10:00:00 26.8 8 Sudeste 13 Sudeste 0 -- -- 59
2020-06-28 09:00:00 23.5 4 Este 9 Sudeste 0 -- -- 78
2020-06-28 08:00:00 18.9 4 Noroeste 8 Norte 0 -- -- 78
2020-06-28 07:00:00 17.7 0 Calma 6 Norte 0 -- -- 80
2020-06-28 06:00:00 17.9 5 Norte 8 Norte 0 -- -- 78
2020-06-28 05:00:00 18.3 3 Norte 5 Noroeste 0 -- -- 80
2020-06-28 04:00:00 19.1 3 Norte 4 Noroeste 0 -- -- 79
2020-06-28 03:00:00 20.1 4 Norte 5 Noroeste 0 -- -- 76
2020-06-28 02:00:00 21.2 0 Calma 6 Nordeste 0 -- -- 74
2020-06-28 01:00:00 22.3 5 Este 12 Este 0 -- -- 74
2020-06-28 00:00:00 23.1 6 Este 15 Este 0 -- -- 72
2020-06-27 23:00:00 23.9 9 Este 17 Este 0 -- -- 70
2020-06-27 22:00:00 25.1 9 Este 22 Este 0 -- -- 62
2020-06-27 21:00:00 27.1 14 Este 26 Este 0 -- -- 56
2020-06-27 20:00:00 29.2 15 Este 27 Este 0 -- -- 52
2020-06-27 19:00:00 29.9 17 Este 35 Este 0 -- -- 54
2020-06-27 18:00:00 31.3 19 Este 38 Sudeste 0 -- -- 51
2020-06-27 17:00:00 31.7 22 Este 41 Este 0 -- -- 50
2020-06-27 16:00:00 36.5 4 Este 19 Noroeste 0 -- -- 23
2020-06-27 15:00:00 36.2 11 Sudoeste 21 Sudoeste 0 -- -- 23
2020-06-27 14:00:00 35 8 Sur 22 Oeste 0 -- -- 24
2020-06-27 13:00:00 33.7 5 Nordeste 15 Noroeste 0 -- -- 26
2020-06-27 12:00:00 31.8 7 Noroeste 18 Oeste 0 -- -- 27
2020-06-27 11:00:00 29.5 12 Oeste 18 Oeste 0 -- -- 30
2020-06-27 10:00:00 26.7 7 Oeste 11 Oeste 0 -- -- 56
2020-06-27 09:00:00 22.7 0 Calma 5 Nordeste 0 -- -- 81
2020-06-27 08:00:00 20.1 4 Nordeste 6 Nordeste 0 -- -- 90
2020-06-27 07:00:00 19.7 2 Sur 7 Sudoeste 0 -- -- 91
2020-06-27 06:00:00 20.1 3 Sudoeste 10 Oeste 0 -- -- 89
2020-06-27 05:00:00 19.9 3 Sudoeste 6 Sudoeste 0 -- -- 87
2020-06-27 04:00:00 20.4 2 Noroeste 5 Norte 0 -- -- 85
2020-06-27 03:00:00 21.1 3 Noroeste 4 Norte 0 -- -- 83
2020-06-27 02:00:00 21.8 0 Calma 5 Nordeste 0 -- -- 83
2020-06-27 01:00:00 22.3 5 Este 10 Este 0 -- -- 83
2020-06-27 00:00:00 22.9 5 Este 14 Sudeste 0 -- -- 80
2020-06-26 23:00:00 23.7 10 Sudeste 20 Este 0 -- -- 77
2020-06-26 22:00:00 25 12 Este 22 Este 0 -- -- 73
2020-06-26 21:00:00 27.5 10 Sudeste 21 Este 0 -- -- 62
2020-06-26 20:00:00 29.2 14 Sudeste 27 Sudeste 0 -- -- 53
2020-06-26 19:00:00 30.5 15 Este 28 Este 0 -- -- 48
2020-06-26 18:00:00 31.6 16 Este 35 Este 0 -- -- 44
2020-06-26 17:00:00 33.3 19 Sudeste 33 Sudeste 0 -- -- 38
2020-06-26 16:00:00 33.7 17 Sudeste 32 Sudeste 0 -- -- 33
2020-06-26 15:00:00 34 17 Sudeste 26 Sudeste 0 -- -- 37
2020-06-26 14:00:00 32.5 9 Sudeste 25 Sudeste 0 -- -- 35
2020-06-26 13:00:00 30.6 8 Sudeste 21 Sudeste 0 -- -- 41
2020-06-26 12:00:00 29 5 Sudeste 18 Sudeste 0 -- -- 45
2020-06-26 11:00:00 27.4 5 Sudoeste 13 Sudeste 0 -- -- 52
2020-06-26 10:00:00 27 5 Este 18 Este 0 -- -- 56
2020-06-26 09:00:00 24.2 0 Calma 4 Noroeste 0 -- -- 58
2020-06-26 08:00:00 19 4 Noroeste 6 Noroeste 0 -- -- 76
2020-06-26 07:00:00 18 4 Norte 6 Norte 0 -- -- 78
2020-06-26 06:00:00 18.7 3 Noroeste 8 Norte 0 -- -- 77
2020-06-26 05:00:00 19.4 5 Norte 8 Noroeste 0 -- -- 76
2020-06-26 04:00:00 20 5 Noroeste 10 Noroeste 0 -- -- 76
2020-06-26 03:00:00 20.2 6 Noroeste 9 Noroeste 0 -- -- 75
2020-06-26 02:00:00 21.2 4 Noroeste 9 Este 0 -- -- 71
2020-06-26 01:00:00 22.1 5 Este 16 Sudeste 0 -- -- 70
2020-06-26 00:00:00 23.1 9 Este 18 Este 0 -- -- 66
2020-06-25 23:00:00 24.1 8 Este 18 Sudeste 0 -- -- 62
2020-06-25 22:00:00 26 8 Este 19 Sudeste 0 -- -- 52
2020-06-25 21:00:00 28.7 9 Sudeste 26 Este 0 -- -- 41
2020-06-25 20:00:00 30.5 17 Este 32 Sudeste 0 -- -- 36
2020-06-25 19:00:00 31.8 20 Sudeste 35 Este 0 -- -- 29
2020-06-25 18:00:00 32.6 21 Este 35 Este 0 -- -- 29
2020-06-25 17:00:00 33.4 20 Sudeste 35 Este 0 -- -- 29
2020-06-25 16:00:00 34 18 Sudeste 35 Este 0 -- -- 29
2020-06-25 15:00:00 32.9 19 Este 37 Sudeste 0 -- -- 33
2020-06-25 14:00:00 32.9 17 Sudeste 31 Este 0 -- -- 33
2020-06-25 13:00:00 31.7 16 Este 29 Sudeste 0 -- -- 35
2020-06-25 12:00:00 30.9 14 Sudeste 24 Sudeste 0 -- -- 37
2020-06-25 11:00:00 28.9 9 Este 15 Este 0 -- -- 40
2020-06-25 10:00:00 25.9 8 Norte 18 Norte 0 -- -- 52
2020-06-25 09:00:00 22.6 11 Norte 19 Norte 0 -- -- 63
2020-06-25 08:00:00 20.2 0 Calma 18 Norte 0 -- -- 68
2020-06-25 07:00:00 19.1 14 Norte 19 Norte 0 -- -- 72
2020-06-25 06:00:00 18.8 6 Noroeste 9 Noroeste 0 -- -- 75
2020-06-25 05:00:00 20 8 Noroeste 15 Norte 0 -- -- 72
2020-06-25 04:00:00 19.6 10 Norte 14 Norte 0 -- -- 78
2020-06-25 03:00:00 18.8 5 Noroeste 7 Noroeste 0 -- -- 80
2020-06-25 02:00:00 19.8 4 Noroeste 6 Noroeste 0 -- -- 77
2020-06-25 01:00:00 20.9 4 Norte 8 Este 0 -- -- 75
2020-06-25 00:00:00 22 5 Este 11 Sudeste 0 -- -- 71
2020-06-24 23:00:00 23.1 7 Este 18 Este 0 -- -- 66
2020-06-24 22:00:00 24.6 12 Sudeste 30 Sudeste 0 -- -- 64
2020-06-24 21:00:00 26 14 Sudeste 25 Este 0 -- -- 50
2020-06-24 20:00:00 27.8 15 Sudeste 26 Este 0 -- -- 47
2020-06-24 19:00:00 30.5 17 Sudeste 30 Este 0 -- -- 43
2020-06-24 18:00:00 33 13 Sudeste 24 Sudeste 0 -- -- 39
2020-06-24 17:00:00 32.3 12 Sudeste 30 Sudeste 0 -- -- 41
2020-06-24 16:00:00 31 10 Sudeste 23 Sudeste 0 -- -- 44
2020-06-24 15:00:00 28.9 10 Este 19 Sudeste 0 -- -- 47
2020-06-24 14:00:00 26 11 Sudeste 28 Este 0 -- -- 57
2020-06-24 13:00:00 24.7 17 Este 26 Este 0 -- -- 54
2020-06-24 12:00:00 24.4 10 Este 16 Este 0 -- -- 56
2020-06-24 11:00:00 24.6 0 Calma 13 Sudoeste 0 -- -- 56
2020-06-24 10:00:00 25.3 8 Oeste 16 Oeste 0 -- -- 56
2020-06-24 09:00:00 23.4 4 Oeste 13 Norte 0 -- -- 62
2020-06-24 08:00:00 20 10 Norte 17 Norte 0 -- -- 73
2020-06-24 07:00:00 18.6 11 Norte 17 Norte 0 -- -- 76
2020-06-24 06:00:00 19.4 8 Este 17 Este 0 -- -- 70
2020-06-24 05:00:00 19.3 10 Norte 13 Norte 0 -- -- 80
2020-06-24 04:00:00 18.6 7 Norte 10 Noroeste 0 -- -- 81
2020-06-24 03:00:00 19 4 Norte 6 Norte 0 -- -- 81
2020-06-24 02:00:00 19.6 3 Norte 5 Norte 0 -- -- 77
2020-06-24 01:00:00 20.6 3 Norte 4 Noroeste 0 -- -- 73
2020-06-24 00:00:00 21.8 3 Este 7 Este 0 -- -- 68
2020-06-23 23:00:00 22.7 5 Este 11 Este 0 -- -- 66
2020-06-23 22:00:00 24 8 Este 24 Este 0 -- -- 62
2020-06-23 21:00:00 26.1 13 Sudeste 27 Sudeste 0 -- -- 54
2020-06-23 20:00:00 27.8 16 Este 29 Este 0 -- -- 48
2020-06-23 19:00:00 29.5 15 Este 32 Sudeste 0 -- -- 42
2020-06-23 18:00:00 30.4 19 Sudeste 33 Este 0 -- -- 40
2020-06-23 17:00:00 30.6 17 Este 33 Este 0 -- -- 39
2020-06-23 16:00:00 31.3 18 Sudeste 35 Sudeste 0 -- -- 38
2020-06-23 15:00:00 31.2 19 Sudeste 34 Sudeste 0 -- -- 39
2020-06-23 14:00:00 31 17 Sudeste 31 Sudeste 0 -- -- 39
2020-06-23 13:00:00 30.1 12 Sudeste 30 Sudeste 0 -- -- 39
2020-06-23 12:00:00 28.8 9 Sudeste 22 Este 0 -- -- 44
2020-06-23 11:00:00 27.3 12 Este 19 Sudeste 0 -- -- 48
2020-06-23 10:00:00 27.1 6 Sudeste 12 Sudeste 0 -- -- 49
2020-06-23 09:00:00 23.8 0 Calma 5 Sudoeste 0 -- -- 60
2020-06-23 08:00:00 18.5 3 Noroeste 6 Noroeste 0 -- -- 79
2020-06-23 07:00:00 17.2 3 Norte 5 Noroeste 0 -- -- 80
2020-06-23 06:00:00 17.7 3 Noroeste 7 Noroeste 0 -- -- 78
2020-06-23 05:00:00 18.3 3 Noroeste 6 Nordeste 0 -- -- 76
2020-06-23 04:00:00 19 4 Norte 5 Norte 0 -- -- 75
2020-06-23 03:00:00 19.6 3 Nordeste 8 Nordeste 0 -- -- 76
2020-06-23 02:00:00 20.1 5 Nordeste 7 Nordeste 0 -- -- 75
2020-06-23 01:00:00 20.9 4 Nordeste 8 Este 0 -- -- 74
2020-06-23 00:00:00 21.7 4 Este 13 Este 0 -- -- 73
2020-06-22 23:00:00 22.5 6 Este 18 Este 0 -- -- 70
2020-06-22 22:00:00 23.6 11 Este 24 Este 0 -- -- 64
2020-06-22 21:00:00 25.7 15 Este 27 Este 0 -- -- 56
2020-06-22 20:00:00 28.2 16 Sudeste 30 Este 0 -- -- 46
2020-06-22 19:00:00 30.4 17 Sudeste 33 Sudeste 0 -- -- 39
2020-06-22 18:00:00 31.1 19 Sudeste 35 Sudeste 0 -- -- 38
2020-06-22 17:00:00 31.6 16 Sudeste 36 Sudeste 0 -- -- 35
2020-06-22 16:00:00 32.2 17 Sudeste 39 Sudeste 0 -- -- 33
2020-06-22 15:00:00 31.4 18 Este 33 Este 0 -- -- 36
2020-06-22 14:00:00 31.3 14 Sudeste 30 Sudeste 0 -- -- 37
2020-06-22 13:00:00 30.2 13 Sudeste 24 Este 0 -- -- 44
2020-06-22 12:00:00 28.7 10 Sudeste 22 Sudeste 0 -- -- 48
2020-06-22 11:00:00 27.3 6 Sudeste 17 Sudeste 0 -- -- 50
2020-06-22 10:00:00 26.3 6 Sudeste 12 Sudeste 0 -- -- 55
2020-06-22 09:00:00 23.5 0 Calma 5 Este 0 -- -- 68
2020-06-22 08:00:00 18.8 2 Este 5 Noroeste 0 -- -- 87
2020-06-22 07:00:00 17.9 4 Noroeste 9 Noroeste 0 -- -- 87
2020-06-22 06:00:00 17.8 7 Norte 9 Noroeste 0 -- -- 85
2020-06-22 05:00:00 18.5 5 Noroeste 6 Noroeste 0 -- -- 84
2020-06-22 04:00:00 19.7 3 Este 9 Sudeste 0 -- -- 84
2020-06-22 03:00:00 20.5 6 Este 12 Este 0 -- -- 84
2020-06-22 02:00:00 21 7 Este 14 Este 0 -- -- 82
2020-06-22 01:00:00 21.8 8 Este 14 Este 0 -- -- 81
2020-06-22 00:00:00 22.6 7 Este 12 Este 0 -- -- 71
2020-06-21 23:00:00 23.6 6 Este 10 Este 0 -- -- 63
2020-06-21 22:00:00 24.9 9 Este 20 Sudeste 0 -- -- 58
2020-06-21 21:00:00 27 13 Sudeste 29 Este 0 -- -- 52
2020-06-21 20:00:00 28.9 21 Sudeste 33 Este 0 -- -- 46
2020-06-21 19:00:00 29.9 19 Este 33 Este 0 -- -- 45
2020-06-21 18:00:00 31.4 18 Este 32 Este 0 -- -- 43
2020-06-21 17:00:00 31.9 18 Este 35 Sudeste 0 -- -- 45
2020-06-21 16:00:00 32.8 18 Este 31 Sudeste 0 -- -- 42
2020-06-21 15:00:00 33.1 17 Sudeste 28 Sudeste 0 -- -- 44
2020-06-21 14:00:00 32.2 14 Sudeste 28 Este 0 -- -- 44
2020-06-21 13:00:00 30.8 14 Este 24 Sudeste 0 -- -- 45
2020-06-21 12:00:00 29.8 13 Este 24 Este 0 -- -- 46
2020-06-21 11:00:00 29.4 6 Este 19 Noroeste 0 -- -- 43
2020-06-21 10:00:00 26.6 10 Noroeste 23 Noroeste 0 -- -- 49
2020-06-21 09:00:00 23.3 10 Oeste 22 Noroeste 0 -- -- 60
2020-06-21 08:00:00 19 6 Noroeste 10 Norte 0 -- -- 80
2020-06-21 07:00:00 17.6 3 Noroeste 6 Noroeste 0 -- -- 88
2020-06-21 06:00:00 17.9 3 Noroeste 6 Oeste 0 -- -- 90
2020-06-21 05:00:00 18.1 3 Noroeste 8 Noroeste 0 -- -- 86
2020-06-21 04:00:00 18.6 5 Noroeste 9 Noroeste 0 -- -- 87
2020-06-21 03:00:00 19.4 3 Noroeste 4 Noroeste 0 -- -- 86
2020-06-21 02:00:00 20.1 3 Noroeste 6 Este 0 -- -- 82
2020-06-21 01:00:00 21 4 Este 13 Sudeste 0 -- -- 81
2020-06-21 00:00:00 21.7 7 Este 17 Sudeste 0 -- -- 79
2020-06-20 23:00:00 22.8 12 Sudeste 19 Este 0 -- -- 75
2020-06-20 22:00:00 24 9 Este 25 Este 0 -- -- 66
2020-06-20 21:00:00 27 13 Este 24 Este 0 -- -- 54
2020-06-20 20:00:00 29.6 15 Este 28 Este 0 -- -- 47
2020-06-20 19:00:00 30.5 17 Este 32 Este 0 -- -- 45
2020-06-20 18:00:00 31.4 19 Este 35 Sudeste 0 -- -- 42
2020-06-20 17:00:00 32.4 20 Este 34 Sudeste 0 -- -- 43
2020-06-20 16:00:00 33.3 14 Este 27 Sudeste 0 -- -- 43
2020-06-20 15:00:00 32.4 9 Sudeste 19 Este 0 -- -- 38
2020-06-20 14:00:00 30.8 8 Sudeste 20 Sudeste 0 -- -- 42
2020-06-20 13:00:00 29.2 9 Sudeste 19 Sur 0 -- -- 45
2020-06-20 12:00:00 27.3 9 Sudeste 16 Sudeste 0 -- -- 53
2020-06-20 11:00:00 25.2 4 Oeste 11 Sudoeste 0 -- -- 57
2020-06-20 10:00:00 24.3 6 Oeste 10 Oeste 0 -- -- 63
2020-06-20 09:00:00 22.1 2 Sudoeste 5 Sur 0 -- -- 72
2020-06-20 08:00:00 17.8 0 Calma 5 Noroeste 0 -- -- 91
2020-06-20 07:00:00 16.3 4 Noroeste 6 Norte 0 -- -- 88
2020-06-20 06:00:00 16.7 4 Norte 5 Noroeste 0 -- -- 87
2020-06-20 05:00:00 17.1 3 Norte 7 Noroeste 0 -- -- 86
2020-06-20 04:00:00 18 0 Calma 8 Este 0 -- -- 83
2020-06-20 03:00:00 18.8 5 Este 8 Este 0 -- -- 82
2020-06-20 02:00:00 19.5 3 Sudeste 9 Este 0 -- -- 80
2020-06-20 01:00:00 20.2 5 Este 9 Este 0 -- -- 78
2020-06-20 00:00:00 21 5 Sudeste 12 Este 0 -- -- 75
2020-06-19 23:00:00 21.8 6 Este 13 Este 0 -- -- 75
2020-06-19 22:00:00 23 5 Este 22 Este 0 -- -- 70
2020-06-19 21:00:00 24.8 15 Sudeste 30 Este 0 -- -- 62
2020-06-19 20:00:00 26.4 21 Sudeste 31 Sudeste 0 -- -- 56
2020-06-19 19:00:00 29.4 16 Sudeste 30 Sudeste 0 -- -- 50
2020-06-19 18:00:00 30.6 16 Sudeste 31 Sudeste 0 -- -- 48
2020-06-19 17:00:00 30.7 14 Sudeste 32 Sudeste 0 -- -- 46
2020-06-19 16:00:00 29.9 16 Sudeste 30 Este 0 -- -- 47
2020-06-19 15:00:00 30.3 11 Sudeste 22 Sudeste 0 -- -- 46
2020-06-19 14:00:00 27.6 8 Sudeste 21 Sudeste 0 -- -- 54
2020-06-19 13:00:00 27.2 7 Este 18 Sur 0 -- -- 55
2020-06-19 12:00:00 26.9 7 Sudeste 18 Sudeste 0 -- -- 57
2020-06-19 11:00:00 25.1 9 Este 17 Sudeste 0 -- -- 66
2020-06-19 10:00:00 24 8 Este 17 Sudeste 0 -- -- 71
2020-06-19 09:00:00 22.2 4 Este 8 Este 0 -- -- 83
2020-06-19 08:00:00 20.1 3 Sur 12 Sudeste 0 -- -- 92
2020-06-19 07:00:00 20.3 10 Sudeste 17 Sudeste 0 -- -- 90
2020-06-19 06:00:00 20.5 9 Este 17 Este 0 -- -- 90
2020-06-19 05:00:00 20.4 4 Este 13 Este 0 -- -- 88
2020-06-19 04:00:00 20.6 4 Este 8 Sudeste 0 -- -- 86
2020-06-19 03:00:00 20.9 5 Sudeste 17 Sudeste 0 -- -- 84
2020-06-19 02:00:00 21.1 9 Sudeste 16 Sudeste 0 -- -- 85
2020-06-19 01:00:00 20.9 3 Este 23 Sudeste 0 -- -- 85
2020-06-19 00:00:00 21.4 13 Este 21 Sudeste 0 -- -- 82
2020-06-18 23:00:00 21.2 5 Este 17 Sudeste 0 -- -- 82
2020-06-18 22:00:00 22 9 Sudeste 21 Sudeste 0 -- -- 78
2020-06-18 21:00:00 22.8 13 Este 27 Este 0 -- -- 75
2020-06-18 20:00:00 24.8 12 Este 34 Sudeste 0 -- -- 67
2020-06-18 19:00:00 26.3 21 Sudeste 36 Sudeste 0 -- -- 59
2020-06-18 18:00:00 27.5 23 Sudeste 40 Sudeste 0 -- -- 59
2020-06-18 17:00:00 28.6 22 Sudeste 36 Sudeste 0 -- -- 54
2020-06-18 16:00:00 29.1 19 Sudeste 33 Sudeste 0 -- -- 51
2020-06-18 15:00:00 29.3 19 Este 32 Este 0 -- -- 52
2020-06-18 14:00:00 29.1 11 Sudeste 23 Sudeste 0 -- -- 47
2020-06-18 13:00:00 27.6 10 Sudeste 21 Sudeste 0 -- -- 55
2020-06-18 12:00:00 26.1 6 Sur 17 Sudeste 0 -- -- 59
2020-06-18 11:00:00 24.9 6 Este 15 Sudeste 0 -- -- 63
2020-06-18 10:00:00 24.5 5 Este 11 Norte 0 -- -- 64
2020-06-18 09:00:00 22.7 5 Sudeste 9 Este 0 -- -- 74
2020-06-18 08:00:00 19.2 4 Norte 11 Norte 0 -- -- 88
2020-06-18 07:00:00 18.1 8 Norte 12 Norte 0 -- -- 91
2020-06-18 06:00:00 18.2 4 Norte 8 Norte 0 -- -- 93
2020-06-18 05:00:00 19.5 3 Este 7 Este 0 -- -- 94
2020-06-18 04:00:00 19.4 2 Este 9 Este 0 -- -- 94
2020-06-18 03:00:00 19.2 5 Este 10 Este 0 -- -- 95
2020-06-18 02:00:00 19.5 6 Este 12 Este 0 -- -- 94
2020-06-18 01:00:00 19.3 8 Este 14 Este 0 -- -- 93
2020-06-18 00:00:00 19.6 9 Este 18 Este 0 -- -- 91
2020-06-17 23:00:00 19.9 9 Este 22 Este 0 -- -- 89
2020-06-17 22:00:00 20.9 12 Este 27 Sudeste 0 -- -- 85
2020-06-17 21:00:00 22.9 15 Este 31 Este 0 -- -- 76
2020-06-17 20:00:00 25 17 Este 29 Este 0 -- -- 65
2020-06-17 19:00:00 25.9 18 Este 29 Este 0 -- -- 62
2020-06-17 18:00:00 25.8 13 Este 24 Este 0 -- -- 67
2020-06-17 17:00:00 23.5 13 Este 23 Sudeste 8.8 -- -- 85
2020-06-17 16:00:00 24.8 19 Este 33 Este 1.2 -- -- 76
2020-06-17 15:00:00 28.7 16 Sudeste 30 Sudeste 0 -- -- 51
2020-06-17 14:00:00 30.4 12 Sudeste 27 Sudeste 0 -- -- 40
2020-06-17 13:00:00 29.4 8 Sudeste 19 Sur 0 -- -- 42
2020-06-17 12:00:00 27.7 8 Sudeste 19 Sudeste 0 -- -- 50
2020-06-17 11:00:00 26 6 Sudeste 14 Sudeste 0 -- -- 57
2020-06-17 10:00:00 24.9 4 Sudeste 10 Sur 0 -- -- 65
2020-06-17 09:00:00 22.3 3 Sudeste 7 Sudeste 0 -- -- 77
2020-06-17 08:00:00 18 3 Norte 5 Noroeste 0 -- -- 93
2020-06-17 07:00:00 16.2 3 Norte 6 Norte 0 -- -- 90
2020-06-17 06:00:00 16.5 3 Norte 6 Norte 0 -- -- 87
2020-06-17 05:00:00 16.9 4 Noroeste 6 Noroeste 0 -- -- 87
2020-06-17 04:00:00 17.6 3 Norte 9 Norte 0 -- -- 87
2020-06-17 03:00:00 18.3 0 Calma 12 Norte 0 -- -- 87
2020-06-17 02:00:00 19 5 Norte 9 Norte 0 -- -- 86
2020-06-17 01:00:00 19.8 0 Calma 10 Este 0 -- -- 81
2020-06-17 00:00:00 20.6 6 Este 15 Este 0 -- -- 80
2020-06-16 23:00:00 21.4 9 Este 26 Sudeste 0 -- -- 73
2020-06-16 22:00:00 22.2 13 Este 29 Sudeste 0 -- -- 60
2020-06-16 21:00:00 24.6 12 Este 24 Este 0 -- -- 52
2020-06-16 20:00:00 26.1 12 Este 26 Este 0 -- -- 44
2020-06-16 19:00:00 28.3 14 Este 28 Este 0 -- -- 43
2020-06-16 18:00:00 29.1 17 Este 31 Este 0 -- -- 41
2020-06-16 17:00:00 29.7 21 Este 32 Sudeste 0 -- -- 43
2020-06-16 16:00:00 30 18 Este 33 Sudeste 0 -- -- 42
2020-06-16 15:00:00 32.3 10 Este 24 Noroeste 0 -- -- 36
2020-06-16 14:00:00 31.7 15 Noroeste 32 Oeste 0 -- -- 28
2020-06-16 13:00:00 30.6 18 Noroeste 31 Noroeste 0 -- -- 29
2020-06-16 12:00:00 29.7 19 Noroeste 31 Noroeste 0 -- -- 31
2020-06-16 11:00:00 28.2 17 Noroeste 28 Noroeste 0 -- -- 33
2020-06-16 10:00:00 27 14 Noroeste 28 Noroeste 0 -- -- 35
2020-06-16 09:00:00 24.6 13 Noroeste 23 Noroeste 0 -- -- 39
2020-06-16 08:00:00 18.4 3 Oeste 6 Oeste 0 -- -- 64
2020-06-16 07:00:00 17.2 2 Noroeste 6 Noroeste 0 -- -- 66
2020-06-16 06:00:00 17.1 0 Calma 4 Noroeste 0 -- -- 73
2020-06-16 05:00:00 17.5 0 Calma 9 Oeste 0 -- -- 73
2020-06-16 04:00:00 17.4 4 Noroeste 6 Norte 0 -- -- 72
2020-06-16 03:00:00 17.5 5 Noroeste 8 Noroeste 0 -- -- 71
2020-06-16 02:00:00 18.8 2 Norte 8 Norte 0 -- -- 67
2020-06-16 01:00:00 20.4 0 Calma 5 Este 0 -- -- 65
2020-06-16 00:00:00 21.8 0 Calma 9 Sudeste 0 -- -- 62
2020-06-15 23:00:00 23.4 3 Sudeste 14 Este 0 -- -- 57
2020-06-15 22:00:00 25.7 10 Sudeste 20 Sudeste 0 -- -- 51
2020-06-15 21:00:00 29.5 5 Sur 16 Sur 0 -- -- 30
2020-06-15 20:00:00 32 7 Sur 25 Sudeste 0 -- -- 27
2020-06-15 19:00:00 32.5 11 Sur 27 Sur 0 -- -- 26
2020-06-15 18:00:00 34.1 14 Sudeste 33 Sudeste 0 -- -- 25
2020-06-15 17:00:00 33.1 15 Sudeste 34 Sudeste 0 -- -- 29
2020-06-15 16:00:00 33.5 24 Sudeste 38 Sudeste 0 -- -- 28
2020-06-15 15:00:00 33.3 8 Sur 20 Oeste 0 -- -- 24
2020-06-15 14:00:00 32.3 8 Oeste 24 Oeste 0 -- -- 26
2020-06-15 13:00:00 30.7 8 Noroeste 21 Oeste 0 -- -- 26
2020-06-15 12:00:00 29.5 11 Noroeste 23 Noroeste 0 -- -- 29
2020-06-15 11:00:00 27.7 15 Noroeste 23 Noroeste 0 -- -- 32
2020-06-15 10:00:00 26.2 14 Noroeste 27 Noroeste 0 -- -- 35
2020-06-15 09:00:00 23.1 15 Noroeste 25 Noroeste 0 -- -- 42
2020-06-15 08:00:00 19.8 15 Noroeste 27 Oeste 0 -- -- 51
2020-06-15 07:00:00 17.5 4 Noroeste 12 Noroeste 0 -- -- 57
2020-06-15 06:00:00 17.3 3 Noroeste 15 Oeste 0 -- -- 62
2020-06-15 05:00:00 16.8 5 Noroeste 11 Noroeste 0 -- -- 63
2020-06-15 04:00:00 17.2 4 Noroeste 12 Oeste 0 -- -- 67
2020-06-15 03:00:00 17 5 Noroeste 9 Oeste 0 -- -- 74
2020-06-15 02:00:00 17.4 2 Oeste 7 Noroeste 0 -- -- 75
2020-06-15 01:00:00 18.5 3 Norte 4 Norte 0 -- -- 71
2020-06-15 00:00:00 19.7 2 Sudeste 10 Este 0 -- -- 70
2020-06-14 23:00:00 20.8 6 Este 14 Sudeste 0 -- -- 67
2020-06-14 22:00:00 22.3 8 Sudeste 19 Sudeste 0 -- -- 62
2020-06-14 21:00:00 24.7 9 Este 26 Este 0 -- -- 47
2020-06-14 20:00:00 27 17 Este 32 Este 0 -- -- 37
2020-06-14 19:00:00 29.5 19 Sudeste 31 Sudeste 0 -- -- 28
2020-06-14 18:00:00 31.9 18 Sudeste 30 Sudeste 0 -- -- 28
2020-06-14 17:00:00 32.1 13 Sudeste 32 Sudeste 0 -- -- 30
2020-06-14 16:00:00 32.3 8 Sur 25 Sudeste 0 -- -- 25
2020-06-14 15:00:00 31.1 11 Sur 21 Sur 0 -- -- 27
2020-06-14 14:00:00 29.4 3 Sudeste 14 Sur 0 -- -- 29
2020-06-14 13:00:00 28.4 5 Sudeste 15 Oeste 0 -- -- 31
2020-06-14 12:00:00 27 5 Sudoeste 16 Oeste 0 -- -- 34
2020-06-14 11:00:00 24.8 12 Noroeste 25 Noroeste 0 -- -- 37
2020-06-14 10:00:00 21.3 13 Noroeste 27 Noroeste 0 -- -- 45
2020-06-14 09:00:00 20.1 13 Noroeste 22 Noroeste 0 -- -- 47
2020-06-14 08:00:00 18.3 5 Noroeste 10 Noroeste 0 -- -- 54
2020-06-14 07:00:00 17.8 5 Noroeste 15 Noroeste 0 -- -- 55
2020-06-14 06:00:00 16.2 6 Noroeste 10 Noroeste 0 -- -- 60
2020-06-14 05:00:00 15.5 6 Noroeste 9 Noroeste 0 -- -- 64
2020-06-14 04:00:00 16.1 3 Norte 5 Noroeste 0 -- -- 61
2020-06-14 03:00:00 16.2 3 Norte 6 Norte 0 -- -- 59
2020-06-14 02:00:00 16.8 2 Sudeste 5 Sudeste 0 -- -- 56
2020-06-14 01:00:00 17.7 4 Norte 8 Norte 0 -- -- 52
2020-06-14 00:00:00 18.9 3 Noroeste 8 Noroeste 0 -- -- 49
2020-06-13 23:00:00 20.5 4 Nordeste 9 Nordeste 0 -- -- 44
2020-06-13 22:00:00 23 2 Noroeste 11 Sudoeste 0 -- -- 38
2020-06-13 21:00:00 25.8 6 Sur 21 Sudoeste 0 -- -- 33
2020-06-13 20:00:00 27.6 13 Sudoeste 32 Sudoeste 0 -- -- 31
2020-06-13 19:00:00 28.7 16 Sudoeste 32 Sur 0 -- -- 31
2020-06-13 18:00:00 30.9 13 Sur 25 Sur 0 -- -- 29
2020-06-13 17:00:00 30.7 8 Sudeste 18 Sudeste 0 -- -- 26
2020-06-13 16:00:00 29 6 Este 22 Noroeste 0 -- -- 27
2020-06-13 15:00:00 27.9 11 Norte 30 Norte 0 -- -- 29
2020-06-13 14:00:00 26.7 11 Noroeste 35 Noroeste 0 -- -- 31
2020-06-13 13:00:00 25.3 18 Noroeste 36 Noroeste 0 -- -- 33
2020-06-13 12:00:00 24.3 20 Noroeste 40 Norte 0 -- -- 35
2020-06-13 11:00:00 23 20 Noroeste 35 Noroeste 0 -- -- 40
2020-06-13 10:00:00 21.7 18 Noroeste 30 Noroeste 0 -- -- 44
2020-06-13 09:00:00 20.6 15 Norte 23 Noroeste 0 -- -- 47
2020-06-13 08:00:00 18.6 12 Norte 18 Norte 0 -- -- 50
2020-06-13 07:00:00 18 13 Noroeste 25 Noroeste 0 -- -- 51
2020-06-13 06:00:00 17.9 6 Norte 22 Noroeste 0 -- -- 50
2020-06-13 05:00:00 19.3 17 Noroeste 30 Noroeste 0 -- -- 46
2020-06-13 04:00:00 19.5 17 Noroeste 30 Noroeste 0 -- -- 43
2020-06-13 03:00:00 20.8 22 Noroeste 35 Noroeste 0 -- -- 39
2020-06-13 02:00:00 21.9 18 Noroeste 30 Norte 0 -- -- 35
2020-06-13 01:00:00 22.3 17 Noroeste 33 Noroeste 0 -- -- 34
2020-06-13 00:00:00 22.5 16 Noroeste 27 Noroeste 0 -- -- 33
2020-06-12 23:00:00 22.6 13 Noroeste 30 Noroeste 0 -- -- 31
2020-06-12 22:00:00 23.6 17 Noroeste 30 Noroeste 0 -- -- 30
2020-06-12 21:00:00 24.9 18 Noroeste 32 Noroeste 0 -- -- 29
2020-06-12 20:00:00 28.5 16 Noroeste 32 Noroeste 0 -- -- 24
2020-06-12 19:00:00 29.9 17 Noroeste 30 Noroeste 0 -- -- 24
2020-06-12 18:00:00 30.1 18 Noroeste 32 Noroeste 0 -- -- 24
2020-06-12 17:00:00 30.5 20 Norte 33 Norte 0 -- -- 26
2020-06-12 16:00:00 29.2 13 Noroeste 26 Norte 0 -- -- 29
2020-06-12 15:00:00 29 8 Nordeste 23 Norte 0 -- -- 32
2020-06-12 14:00:00 27.9 12 Norte 30 Noroeste 0 -- -- 35
2020-06-12 13:00:00 25.9 17 Norte 27 Noroeste 0 -- -- 39
2020-06-12 12:00:00 25.9 12 Sudoeste 32 Sudoeste 0 -- -- 39
2020-06-12 11:00:00 24.9 11 Oeste 23 Oeste 0 -- -- 39
2020-06-12 10:00:00 24.7 5 Oeste 14 Sudoeste 0 -- -- 41
2020-06-12 09:00:00 22.8 8 Noroeste 19 Oeste 0 -- -- 49
2020-06-12 08:00:00 19.7 9 Noroeste 15 Oeste 0 -- -- 58
2020-06-12 07:00:00 18.8 5 Oeste 15 Oeste 0 -- -- 59
2020-06-12 06:00:00 18.7 7 Oeste 13 Noroeste 0 -- -- 60
2020-06-12 05:00:00 20 5 Oeste 13 Oeste 0 -- -- 57
2020-06-12 04:00:00 21 10 Noroeste 20 Noroeste 0 -- -- 53
2020-06-12 03:00:00 21.9 8 Noroeste 23 Oeste 0 -- -- 50
2020-06-12 02:00:00 22.7 12 Noroeste 23 Noroeste 0 -- -- 46
2020-06-12 01:00:00 23.1 5 Noroeste 19 Noroeste 0 -- -- 42
2020-06-12 00:00:00 24.4 12 Noroeste 24 Noroeste 0 -- -- 39